American Falls, Idaho
Current Conditions -  °F | °C
As of 12:53 PM on Sunday 25 Jan 2015 (Local Time) from KPIH Reporting Station
Broken Clouds Broken Clouds  
Wind Chill:   Ceiling: 2900
Heat Index:   Visibility: 10mi
Dew Point:   Wind: 6mph
Humidity: 82%   Direction: 50°NE
Pressure: 30.45"   Gusts: NA
Location:  42.79°N, 112.85°W
Report Text: KPIH 251953Z 05005KT 10SM FEW005 BKN029 03/00 A3045 RMK AO2 SLP330 T00280000
Loading
Personal Weather Stations






























Interactive Weather Map New forecast layout! Learn more

10-Day Weather Forecast

Advertisements
Track Severe Weather on mobile